Time;durP1;ratioP1;P1;durP2;ratioP2;P2;SDS_P1;SDS_P2;PMS_P1;PMS_P2;Temp;Humidity;BMP_temperature;BMP_pressure;BME280_temperature;BME280_humidity;BME280_pressure;Samples;Min_cycle;Max_cycle;Signal;HPM_P1;HPM_P2
2023/06/06 00:01:21;;;;;;;10.73;5.05;;;10.80;99.90;;;;;;5050371;28;20044;-74
2023/06/06 00:03:48;;;;;;;11.00;4.78;;;10.80;99.90;;;;;;5067737;28;20072;-74
2023/06/06 00:06:20;;;;;;;13.00;5.68;;;10.80;99.90;;;;;;5062353;28;20044;-74
2023/06/06 00:08:47;;;;;;;10.82;5.50;;;10.70;99.90;;;;;;5063601;28;20041;-74
2023/06/06 00:11:12;;;;;;;11.73;5.05;;;10.70;99.90;;;;;;5054734;28;20532;-74
2023/06/06 00:13:40;;;;;;;13.02;5.38;;;10.60;99.90;;;;;;5056841;28;20070;-74
2023/06/06 00:16:06;;;;;;;12.88;5.32;;;10.60;99.90;;;;;;5059965;28;20486;-74
2023/06/06 00:18:32;;;;;;;11.45;5.55;;;10.60;99.90;;;;;;5055767;28;20120;-74
2023/06/06 00:20:58;;;;;;;10.63;5.65;;;10.60;99.90;;;;;;5060671;28;20735;-74
2023/06/06 00:23:24;;;;;;;12.68;6.05;;;10.60;99.90;;;;;;5069452;28;20045;-74
2023/06/06 00:25:52;;;;;;;12.05;5.95;;;10.60;99.90;;;;;;5063905;28;20719;-74
2023/06/06 00:28:18;;;;;;;11.80;5.65;;;10.70;99.90;;;;;;5065676;28;20040;-74
2023/06/06 00:30:44;;;;;;;11.90;5.65;;;10.70;99.90;;;;;;5047486;28;20137;-74
2023/06/06 00:33:10;;;;;;;12.07;5.90;;;10.70;99.90;;;;;;5048385;28;20132;-74
2023/06/06 00:35:36;;;;;;;14.57;5.97;;;10.70;99.90;;;;;;5062385;28;20052;-74
2023/06/06 00:38:02;;;;;;;12.38;5.63;;;10.80;99.90;;;;;;5056368;28;20052;-74
2023/06/06 00:40:27;;;;;;;13.25;5.68;;;10.80;99.90;;;;;;5063557;28;20186;-74
2023/06/06 00:42:53;;;;;;;12.48;5.80;;;10.80;99.90;;;;;;5055679;28;20075;-74
2023/06/06 00:45:19;;;;;;;11.68;5.75;;;10.90;99.90;;;;;;5065551;28;20071;-74
2023/06/06 00:47:45;;;;;;;12.77;6.18;;;10.90;99.90;;;;;;5062192;28;20037;-74
2023/06/06 00:50:12;;;;;;;12.27;5.88;;;10.90;99.90;;;;;;5059044;28;20104;-74
2023/06/06 00:52:41;;;;;;;12.77;6.20;;;10.90;99.90;;;;;;5064250;28;20048;-74
2023/06/06 00:55:09;;;;;;;13.80;5.72;;;10.90;99.90;;;;;;5062533;28;20040;-74
2023/06/06 00:57:36;;;;;;;14.48;6.78;;;11.00;99.90;;;;;;5048839;28;20041;-74
2023/06/06 01:00:06;;;;;;;13.57;6.30;;;11.00;99.90;;;;;;5061341;28;20048;-74
2023/06/06 01:02:37;;;;;;;13.30;6.25;;;11.00;99.90;;;;;;5066648;28;20529;-74
2023/06/06 01:05:09;;;;;;;11.88;5.70;;;11.00;99.90;;;;;;5060544;28;20244;-74
2023/06/06 01:07:37;;;;;;;13.23;6.57;;;11.00;99.90;;;;;;5059751;28;20124;-74
2023/06/06 01:10:05;;;;;;;13.50;6.22;;;11.00;99.90;;;;;;5067433;28;20036;-74
2023/06/06 01:12:43;;;;;;;11.52;5.70;;;11.10;99.90;;;;;;5049374;28;20045;-74
2023/06/06 01:15:24;;;;;;;14.23;5.80;;;11.10;99.90;;;;;;5043847;28;20049;-74
2023/06/06 01:17:51;;;;;;;15.60;6.43;;;11.10;99.90;;;;;;5052587;28;20052;-74
2023/06/06 01:20:18;;;;;;;14.32;6.18;;;11.20;99.90;;;;;;5065826;28;20044;-74
2023/06/06 01:22:46;;;;;;;13.02;6.35;;;11.20;99.90;;;;;;5066575;28;20060;-74
2023/06/06 01:25:19;;;;;;;14.90;6.78;;;11.20;99.90;;;;;;5061961;28;20537;-74
2023/06/06 01:27:53;;;;;;;15.43;6.68;;;11.20;99.90;;;;;;5065058;28;20408;-74
2023/06/06 01:30:21;;;;;;;15.23;6.75;;;11.20;99.90;;;;;;5066128;28;20403;-74
2023/06/06 01:33:02;;;;;;;15.18;6.90;;;11.20;99.90;;;;;;5057317;28;20047;-74
2023/06/06 01:35:34;;;;;;;14.13;6.68;;;11.20;99.90;;;;;;5057850;28;20048;-74
2023/06/06 01:38:16;;;;;;;12.52;6.10;;;11.20;99.90;;;;;;5057605;28;20053;-74
2023/06/06 01:40:44;;;;;;;12.70;6.80;;;11.20;99.90;;;;;;5059844;28;20532;-74
2023/06/06 01:43:10;;;;;;;13.88;6.50;;;11.20;99.90;;;;;;5041835;28;21500;-74
2023/06/06 01:45:38;;;;;;;12.27;6.18;;;11.10;99.90;;;;;;5058413;28;20036;-74
2023/06/06 01:48:04;;;;;;;14.05;6.30;;;11.10;99.90;;;;;;5059364;28;20041;-74
2023/06/06 01:50:32;;;;;;;14.10;6.38;;;11.10;99.90;;;;;;5058462;28;20078;-74
2023/06/06 01:52:58;;;;;;;14.45;6.13;;;11.10;99.90;;;;;;5053312;28;20069;-74
2023/06/06 01:55:23;;;;;;;13.35;6.18;;;11.00;99.90;;;;;;5041891;28;20079;-74
2023/06/06 01:57:49;;;;;;;12.75;5.95;;;11.00;99.90;;;;;;5060068;28;20072;-74
2023/06/06 02:00:16;;;;;;;12.20;5.93;;;11.00;99.90;;;;;;5054841;28;20040;-74
2023/06/06 02:02:42;;;;;;;15.35;6.70;;;11.00;99.90;;;;;;5061374;28;20048;-74
2023/06/06 02:05:08;;;;;;;15.48;6.80;;;11.00;99.90;;;;;;5056363;28;20048;-74
2023/06/06 02:07:34;;;;;;;18.27;6.88;;;11.00;99.90;;;;;;5057892;28;20113;-74
2023/06/06 02:10:07;;;;;;;16.40;7.38;;;11.00;99.90;;;;;;5059611;28;20383;-74
2023/06/06 02:12:33;;;;;;;13.85;6.53;;;10.90;99.90;;;;;;5059931;28;20463;-74
2023/06/06 02:15:02;;;;;;;14.90;6.85;;;10.90;99.90;;;;;;5056392;28;20028;-74
2023/06/06 02:17:29;;;;;;;15.27;6.93;;;10.90;99.90;;;;;;5058365;28;20474;-74
2023/06/06 02:19:54;;;;;;;15.07;6.65;;;10.80;99.90;;;;;;5039985;28;20163;-74
2023/06/06 02:22:20;;;;;;;13.90;6.63;;;10.80;99.90;;;;;;5075574;28;20252;-74
2023/06/06 02:24:49;;;;;;;16.85;6.53;;;12.20;99.90;;;;;;5058945;28;20134;-74
2023/06/06 02:27:15;;;;;;;16.27;6.30;;;10.80;99.90;;;;;;5059169;28;20068;-74
2023/06/06 02:29:41;;;;;;;12.07;6.30;;;10.80;99.90;;;;;;5058682;28;20110;-74
2023/06/06 02:32:08;;;;;;;15.90;7.00;;;10.70;99.90;;;;;;5059341;28;20041;-74
2023/06/06 02:34:34;;;;;;;16.63;7.03;;;10.70;99.90;;;;;;5056368;28;20044;-74
2023/06/06 02:37:02;;;;;;;14.13;6.18;;;10.70;99.90;;;;;;5059905;28;20080;-74
2023/06/06 02:39:28;;;;;;;14.73;6.70;;;10.60;99.90;;;;;;5067740;28;20036;-74
2023/06/06 02:41:53;;;;;;;14.30;6.55;;;10.60;99.90;;;;;;5067385;28;20583;-74
2023/06/06 02:44:19;;;;;;;14.65;6.70;;;10.60;99.90;;;;;;5065233;28;20044;-74
2023/06/06 02:46:46;;;;;;;16.95;6.70;;;10.60;99.90;;;;;;5056056;28;20131;-74
2023/06/06 02:49:11;;;;;;;16.27;6.85;;;10.60;99.90;;;;;;5056215;28;20391;-74
2023/06/06 02:51:37;;;;;;;15.10;6.55;;;10.60;99.90;;;;;;5054196;28;20037;-74
2023/06/06 02:54:03;;;;;;;16.17;6.35;;;10.60;99.90;;;;;;5041365;28;20033;-74
2023/06/06 02:56:29;;;;;;;14.25;6.53;;;10.60;99.90;;;;;;5056198;28;20497;-74
2023/06/06 02:58:55;;;;;;;13.98;6.50;;;10.60;99.90;;;;;;5059957;28;20044;-74
2023/06/06 03:01:21;;;;;;;14.48;6.63;;;10.60;99.90;;;;;;5062145;28;20096;-74
2023/06/06 03:03:48;;;;;;;13.63;5.80;;;10.50;99.90;;;;;;5063166;28;20040;-74
2023/06/06 03:06:15;;;;;;;13.23;6.32;;;10.50;99.90;;;;;;5060791;28;20506;-74
2023/06/06 03:08:43;;;;;;;14.65;6.32;;;10.50;99.90;;;;;;5043371;28;20052;-74
2023/06/06 03:11:09;;;;;;;13.77;6.00;;;10.50;99.90;;;;;;5059920;28;20102;-74
2023/06/06 03:13:35;;;;;;;13.60;6.45;;;10.50;99.90;;;;;;5060048;28;20039;-74
2023/06/06 03:16:01;;;;;;;14.43;6.35;;;10.50;99.90;;;;;;5060832;28;20052;-74
2023/06/06 03:18:27;;;;;;;13.25;5.88;;;10.50;99.90;;;;;;5055647;28;20067;-74
2023/06/06 03:20:53;;;;;;;13.80;6.13;;;10.50;99.90;;;;;;5058501;28;20469;-74
2023/06/06 03:23:20;;;;;;;13.43;6.25;;;10.50;99.90;;;;;;5047102;28;20470;-74
2023/06/06 03:25:49;;;;;;;16.83;6.85;;;10.50;99.90;;;;;;5058023;28;20124;-74
2023/06/06 03:28:18;;;;;;;14.70;5.82;;;10.60;99.90;;;;;;5062196;28;20062;-75
2023/06/06 03:30:45;;;;;;;13.98;6.03;;;10.50;99.90;;;;;;5056852;28;20530;-74
2023/06/06 03:33:11;;;;;;;14.43;6.80;;;10.50;99.90;;;;;;5064798;28;20122;-74
2023/06/06 03:35:37;;;;;;;14.52;6.35;;;10.50;99.90;;;;;;5059245;28;20045;-74
2023/06/06 03:38:04;;;;;;;12.65;6.13;;;10.50;99.90;;;;;;5059910;28;20048;-74
2023/06/06 03:40:30;;;;;;;15.70;6.05;;;10.50;99.90;;;;;;5059086;28;20044;-74
2023/06/06 03:42:56;;;;;;;16.38;6.68;;;10.50;99.90;;;;;;5059885;28;20381;-74
2023/06/06 03:45:22;;;;;;;11.43;5.97;;;10.50;99.90;;;;;;5045809;28;20057;-74
2023/06/06 03:47:49;;;;;;;15.27;6.50;;;10.50;99.90;;;;;;5061067;28;20054;-74
2023/06/06 03:50:15;;;;;;;14.63;6.13;;;10.50;99.90;;;;;;5061375;28;20032;-74
2023/06/06 03:52:41;;;;;;;12.70;5.63;;;10.60;99.90;;;;;;5057997;28;20474;-74
2023/06/06 03:55:09;;;;;;;17.15;6.22;;;10.60;99.90;;;;;;5059219;28;20033;-74
2023/06/06 03:57:35;;;;;;;14.90;6.13;;;10.60;99.90;;;;;;5058708;28;20037;-74
2023/06/06 04:00:05;;;;;;;15.93;6.72;;;10.60;99.90;;;;;;5063086;28;20048;-74
2023/06/06 04:02:31;;;;;;;13.00;6.45;;;10.60;99.90;;;;;;5056804;28;20051;-74
2023/06/06 04:05:01;;;;;;;17.45;6.55;;;10.70;99.90;;;;;;5063141;28;20033;-74
2023/06/06 04:07:28;;;;;;;15.35;6.15;;;10.70;99.90;;;;;;5062416;28;20278;-74
2023/06/06 04:09:54;;;;;;;13.98;5.82;;;10.70;99.90;;;;;;5059961;28;20048;-74
2023/06/06 04:12:21;;;;;;;14.18;5.90;;;10.80;99.90;;;;;;5061027;28;20441;-74
2023/06/06 04:14:47;;;;;;;15.52;6.05;;;10.80;99.90;;;;;;5062035;28;20129;-74
2023/06/06 04:17:13;;;;;;;13.27;6.22;;;10.80;99.90;;;;;;5062284;28;20040;-74
2023/06/06 04:19:39;;;;;;;14.07;6.30;;;10.90;99.90;;;;;;5046256;28;20049;-74
2023/06/06 04:22:05;;;;;;;13.93;6.57;;;11.00;99.90;;;;;;5057204;28;20087;-74
2023/06/06 04:24:34;;;;;;;13.00;6.00;;;11.10;99.90;;;;;;5060359;28;20044;-74
2023/06/06 04:27:03;;;;;;;16.35;5.75;;;11.00;99.90;;;;;;5061447;28;20604;-74
2023/06/06 04:29:32;;;;;;;15.55;6.13;;;10.80;99.90;;;;;;5043035;28;20528;-74
2023/06/06 04:32:03;;;;;;;14.80;6.22;;;11.20;99.90;;;;;;5075916;28;20044;-74
2023/06/06 04:34:30;;;;;;;15.57;6.63;;;11.20;99.90;;;;;;5056060;28;20127;-74
2023/06/06 04:37:03;;;;;;;15.75;6.05;;;11.30;99.90;;;;;;5058115;28;20053;-74
2023/06/06 04:39:38;;;;;;;17.00;6.18;;;11.30;99.90;;;;;;5054397;28;20494;-74
2023/06/06 04:42:05;;;;;;;17.73;5.97;;;11.40;99.90;;;;;;5057330;28;20036;-74
2023/06/06 04:44:41;;;;;;;16.17;6.43;;;11.50;99.90;;;;;;5058836;28;20032;-74
2023/06/06 04:47:09;;;;;;;17.55;6.00;;;11.50;99.90;;;;;;5060354;28;20448;-74
2023/06/06 04:49:38;;;;;;;14.80;5.68;;;11.60;99.90;;;;;;5060653;28;20084;-74
2023/06/06 04:52:10;;;;;;;13.90;5.80;;;11.70;99.90;;;;;;5057078;28;20846;-74
2023/06/06 04:54:40;;;;;;;13.13;5.32;;;11.80;99.90;;;;;;5059362;28;20493;-75
2023/06/06 04:57:15;;;;;;;14.13;5.82;;;11.80;99.90;;;;;;5057790;28;20063;-75
2023/06/06 04:59:47;;;;;;;18.52;6.20;;;11.90;99.90;;;;;;5060062;28;20403;-74
2023/06/06 05:02:13;;;;;;;13.67;6.07;;;12.00;99.90;;;;;;5062649;28;20044;-74
2023/06/06 05:04:40;;;;;;;13.82;5.90;;;12.10;99.90;;;;;;5047122;28;20086;-74
2023/06/06 05:07:08;;;;;;;13.55;5.15;;;12.10;99.90;;;;;;5056414;28;20072;-74
2023/06/06 05:09:33;;;;;;;13.55;5.47;;;12.20;99.90;;;;;;5061781;28;20498;-74
2023/06/06 05:11:59;;;;;;;14.48;5.93;;;12.30;99.90;;;;;;5062040;28;20135;-74
2023/06/06 05:14:25;;;;;;;13.90;5.45;;;12.40;99.90;;;;;;5061276;28;20048;-74
2023/06/06 05:16:52;;;;;;;12.00;5.63;;;12.40;99.90;;;;;;5064040;28;20028;-74
2023/06/06 05:19:18;;;;;;;16.48;5.65;;;12.50;99.90;;;;;;5040809;28;20168;-74
2023/06/06 05:21:44;;;;;;;14.98;5.88;;;12.60;99.90;;;;;;5060096;28;20512;-75
2023/06/06 05:24:10;;;;;;;15.20;5.78;;;12.60;99.90;;;;;;5054749;28;20036;-74
2023/06/06 05:26:36;;;;;;;13.57;5.57;;;12.70;99.90;;;;;;5042457;28;20033;-74
2023/06/06 05:29:02;;;;;;;13.18;5.68;;;12.80;99.90;;;;;;5048909;28;20032;-75
2023/06/06 05:31:28;;;;;;;13.77;5.25;;;12.80;99.90;;;;;;5053268;28;20797;-74
2023/06/06 05:33:55;;;;;;;15.02;5.72;;;12.90;99.90;;;;;;5054200;28;20620;-74
2023/06/06 05:36:21;;;;;;;15.98;6.03;;;13.00;99.90;;;;;;5054121;28;20055;-75
2023/06/06 05:38:46;;;;;;;13.77;5.93;;;13.10;99.90;;;;;;5055164;28;20608;-75
2023/06/06 05:41:13;;;;;;;17.17;5.93;;;13.20;99.90;;;;;;5056671;28;20051;-74
2023/06/06 05:43:39;;;;;;;11.57;5.20;;;13.20;99.90;;;;;;5059910;28;20044;-74
2023/06/06 05:46:05;;;;;;;13.75;4.93;;;13.30;99.90;;;;;;5061254;28;20076;-74
2023/06/06 05:48:32;;;;;;;13.02;4.97;;;13.40;99.90;;;;;;5056494;28;20846;-75
2023/06/06 05:50:57;;;;;;;16.30;4.82;;;13.50;99.90;;;;;;5059600;28;20037;-76
2023/06/06 05:53:24;;;;;;;13.45;4.32;;;13.50;99.90;;;;;;5044315;28;20036;-75
2023/06/06 05:55:50;;;;;;;14.18;4.35;;;13.50;99.90;;;;;;5046326;28;20055;-75
2023/06/06 05:58:16;;;;;;;11.93;4.22;;;13.60;99.90;;;;;;5057488;28;20429;-75
2023/06/06 06:00:42;;;;;;;13.45;4.78;;;13.60;99.90;;;;;;5058772;28;20044;-75
2023/06/06 06:03:08;;;;;;;12.30;4.22;;;13.60;99.90;;;;;;5060406;28;20051;-75
2023/06/06 06:05:35;;;;;;;10.95;4.07;;;13.60;99.90;;;;;;5061968;28;20043;-75
2023/06/06 06:08:02;;;;;;;12.98;4.20;;;13.50;99.90;;;;;;5055439;28;20044;-74
2023/06/06 06:10:30;;;;;;;11.18;3.85;;;13.50;99.90;;;;;;5055719;28;20044;-74
2023/06/06 06:12:56;;;;;;;14.93;4.45;;;13.70;99.90;;;;;;5060313;28;20047;-74
2023/06/06 06:15:22;;;;;;;12.80;4.00;;;13.70;99.90;;;;;;5062805;28;20037;-74
2023/06/06 06:17:48;;;;;;;16.17;4.72;;;13.80;99.90;;;;;;5064972;28;20264;-75
2023/06/06 06:20:16;;;;;;;17.48;4.25;;;13.90;99.90;;;;;;5060915;28;20047;-74
2023/06/06 06:22:43;;;;;;;14.50;4.80;;;14.00;99.90;;;;;;5046235;28;20044;-74
2023/06/06 06:25:12;;;;;;;12.32;4.75;;;14.10;99.90;;;;;;5066825;28;20493;-75
2023/06/06 06:27:42;;;;;;;9.98;3.70;;;14.20;99.90;;;;;;5064789;28;20064;-74
2023/06/06 06:30:09;;;;;;;13.10;4.20;;;14.30;99.90;;;;;;5058728;28;20127;-74
2023/06/06 06:32:37;;;;;;;12.40;3.72;;;14.40;99.90;;;;;;5058787;28;20609;-75
2023/06/06 06:35:03;;;;;;;12.65;4.30;;;14.50;99.90;;;;;;5062379;28;20059;-75
2023/06/06 06:37:30;;;;;;;10.85;4.45;;;14.60;99.90;;;;;;5060441;28;20044;-74
2023/06/06 06:40:00;;;;;;;11.45;4.15;;;14.60;99.90;;;;;;5056115;28;20048;-75
2023/06/06 06:42:26;;;;;;;10.80;3.67;;;14.50;99.90;;;;;;5060743;28;20044;-74
2023/06/06 06:44:52;;;;;;;12.55;4.43;;;14.60;99.90;;;;;;5056459;28;20509;-74
2023/06/06 06:47:19;;;;;;;12.32;3.78;;;14.60;99.90;;;;;;5048331;28;20097;-75
2023/06/06 06:49:45;;;;;;;12.07;4.30;;;14.60;99.90;;;;;;5063310;28;20147;-74
2023/06/06 06:52:11;;;;;;;12.05;4.43;;;14.60;99.90;;;;;;5062030;28;20051;-74
2023/06/06 06:54:53;;;;;;;11.70;4.25;;;14.50;99.90;;;;;;5059485;28;20498;-75
2023/06/06 06:57:20;;;;;;;12.35;4.40;;;14.60;99.90;;;;;;5062922;28;20120;-75
2023/06/06 06:59:48;;;;;;;11.93;4.10;;;14.70;99.90;;;;;;5054874;28;20087;-75
2023/06/06 07:02:14;;;;;;;13.52;4.03;;;14.80;99.90;;;;;;5057849;28;20037;-74
2023/06/06 07:04:39;;;;;;;12.88;3.83;;;14.80;99.90;;;;;;5066459;28;20494;-75
2023/06/06 07:07:06;;;;;;;10.88;3.60;;;14.80;99.90;;;;;;5064631;28;20481;-75
2023/06/06 07:09:32;;;;;;;12.90;4.45;;;14.90;99.90;;;;;;5059848;28;20068;-74
2023/06/06 07:11:58;;;;;;;11.93;3.97;;;14.90;99.90;;;;;;5044302;28;20116;-74
2023/06/06 07:14:28;;;;;;;11.18;3.90;;;15.00;99.90;;;;;;5065039;28;20112;-74
2023/06/06 07:16:54;;;;;;;12.70;4.25;;;15.00;99.90;;;;;;5061161;28;20036;-76
2023/06/06 07:19:20;;;;;;;11.25;4.15;;;15.20;99.90;;;;;;5057204;28;20040;-75
2023/06/06 07:21:46;;;;;;;10.73;3.80;;;15.10;99.90;;;;;;5060814;28;20032;-75
2023/06/06 07:24:12;;;;;;;10.30;4.10;;;15.00;99.90;;;;;;5062738;28;20064;-75
2023/06/06 07:26:38;;;;;;;12.80;4.25;;;15.00;99.90;;;;;;5065246;28;20063;-75
2023/06/06 07:29:04;;;;;;;12.10;4.18;;;15.00;99.90;;;;;;5060230;28;20032;-75
2023/06/06 07:31:33;;;;;;;11.30;3.78;;;15.00;99.90;;;;;;5062211;28;20044;-76
2023/06/06 07:33:59;;;;;;;11.65;4.30;;;15.00;99.90;;;;;;5062499;28;20163;-74
2023/06/06 07:36:25;;;;;;;10.85;4.00;;;15.10;99.90;;;;;;5065447;28;20135;-75
2023/06/06 07:38:53;;;;;;;13.85;4.25;;;15.30;99.90;;;;;;5060391;28;20044;-74
2023/06/06 07:41:20;;;;;;;11.63;4.32;;;15.40;99.90;;;;;;5055639;28;20051;-74
2023/06/06 07:43:46;;;;;;;11.30;3.70;;;15.50;99.90;;;;;;5062085;28;20417;-73
2023/06/06 07:46:11;;;;;;;12.23;3.92;;;15.60;99.90;;;;;;5061088;28;20029;-74
2023/06/06 07:48:37;;;;;;;9.82;3.50;;;15.60;99.90;;;;;;5057324;28;20036;-74
2023/06/06 07:51:03;;;;;;;12.35;4.05;;;15.60;99.90;;;;;;5055043;28;20044;-74
2023/06/06 07:53:29;;;;;;;14.40;4.07;;;15.70;99.90;;;;;;5056981;28;20128;-74
2023/06/06 07:55:55;;;;;;;10.30;3.63;;;15.80;99.90;;;;;;5034046;28;20059;-74
2023/06/06 07:58:25;;;;;;;11.55;3.90;;;15.90;99.90;;;;;;5050928;28;20059;-74
2023/06/06 08:00:51;;;;;;;11.13;4.30;;;15.90;99.90;;;;;;5033360;28;20420;-74
2023/06/06 08:03:17;;;;;;;11.00;3.90;;;16.00;99.90;;;;;;5062929;28;20071;-74
2023/06/06 08:05:43;;;;;;;11.23;4.45;;;16.00;99.90;;;;;;5063390;28;20575;-74
2023/06/06 08:08:09;;;;;;;10.30;3.72;;;16.10;99.90;;;;;;5062394;28;20437;-74
2023/06/06 08:10:34;;;;;;;11.52;4.82;;;16.10;99.90;;;;;;5039049;28;20410;-74
2023/06/06 08:13:01;;;;;;;11.10;3.95;;;16.10;99.90;;;;;;5059431;28;20076;-74
2023/06/06 08:15:27;;;;;;;11.60;3.95;;;16.10;99.90;;;;;;5060106;28;20037;-75
2023/06/06 08:17:53;;;;;;;11.07;3.92;;;16.20;99.90;;;;;;5056298;28;20041;-74
2023/06/06 08:20:19;;;;;;;12.27;4.18;;;16.20;99.90;;;;;;5057545;28;20123;-74
2023/06/06 08:22:51;;;;;;;10.43;4.47;;;16.30;99.90;;;;;;5041315;28;20040;-74
2023/06/06 08:25:17;;;;;;;14.43;4.35;;;16.40;99.90;;;;;;5059316;28;20587;-74
2023/06/06 08:27:43;;;;;;;12.77;4.50;;;16.40;99.90;;;;;;5057601;28;20123;-74
2023/06/06 08:30:09;;;;;;;9.90;4.18;;;16.50;99.90;;;;;;5060967;28;20178;-74
2023/06/06 08:32:37;;;;;;;13.02;5.03;;;16.50;99.90;;;;;;5057392;28;20183;-74
2023/06/06 08:35:03;;;;;;;11.50;4.47;;;16.60;99.90;;;;;;5054876;28;20087;-74
2023/06/06 08:37:30;;;;;;;11.52;4.13;;;16.50;99.90;;;;;;5056019;28;20109;-73
2023/06/06 08:39:56;;;;;;;11.13;4.65;;;16.60;99.90;;;;;;5053322;28;20044;-74
2023/06/06 08:42:22;;;;;;;12.10;4.40;;;16.60;99.90;;;;;;5056208;28;20052;-74
2023/06/06 08:44:53;;;;;;;11.88;4.30;;;16.50;99.90;;;;;;5055278;28;20055;-74
2023/06/06 08:47:23;;;;;;;13.77;4.75;;;16.60;99.90;;;;;;5057562;28;20502;-74
2023/06/06 08:49:50;;;;;;;13.27;4.78;;;16.70;99.90;;;;;;5056420;28;20084;-74
2023/06/06 08:52:17;;;;;;;12.18;4.55;;;16.70;99.90;;;;;;5063269;28;20086;-74
2023/06/06 08:54:47;;;;;;;13.80;5.30;;;16.80;99.90;;;;;;5058686;28;20044;-74
2023/06/06 08:57:15;;;;;;;10.88;4.40;;;16.90;99.90;;;;;;5060819;28;20501;-74
2023/06/06 08:59:41;;;;;;;13.75;4.75;;;16.90;99.90;;;;;;5056816;28;20051;-74
2023/06/06 09:02:07;;;;;;;10.63;4.43;;;17.00;99.90;;;;;;5055598;28;20120;-74
2023/06/06 09:04:34;;;;;;;12.75;5.00;;;17.00;99.90;;;;;;5059915;28;20052;-74
2023/06/06 09:07:04;;;;;;;14.68;5.28;;;17.10;99.90;;;;;;5060351;28;20082;-74
2023/06/06 09:09:35;;;;;;;12.55;4.90;;;17.10;99.90;;;;;;5060466;28;20486;-74
2023/06/06 09:12:00;;;;;;;12.88;4.72;;;17.30;99.90;;;;;;5061056;28;20075;-74
2023/06/06 09:14:26;;;;;;;14.15;4.97;;;17.30;99.90;;;;;;5057771;28;20175;-74
2023/06/06 09:16:55;;;;;;;13.02;5.13;;;17.50;99.90;;;;;;5061063;28;20048;-73
2023/06/06 09:19:27;;;;;;;14.13;5.22;;;17.50;99.90;;;;;;5059990;28;20424;-74
2023/06/06 09:21:57;;;;;;;13.65;5.28;;;17.60;99.90;;;;;;5058499;28;20028;-75
2023/06/06 09:24:23;;;;;;;10.90;5.20;;;17.70;99.90;;;;;;5058482;28;20052;-74
2023/06/06 09:26:48;;;;;;;13.73;4.97;;;17.60;99.90;;;;;;5059841;28;20045;-74
2023/06/06 09:29:14;;;;;;;15.20;5.70;;;17.60;99.90;;;;;;5062550;28;20440;-74
2023/06/06 09:31:41;;;;;;;11.95;5.00;;;17.50;99.90;;;;;;5058746;28;20054;-75
2023/06/06 09:34:09;;;;;;;11.27;5.05;;;17.50;99.90;;;;;;5042968;28;20041;-74
2023/06/06 09:36:37;;;;;;;13.10;5.53;;;17.40;99.90;;;;;;5062034;28;20044;-74
2023/06/06 09:39:15;;;;;;;11.82;5.50;;;17.40;99.90;;;;;;5061808;28;20036;-73
2023/06/06 09:41:46;;;;;;;14.90;5.75;;;17.50;99.90;;;;;;5059455;28;20047;-74
2023/06/06 09:44:20;;;;;;;10.68;4.80;;;17.60;99.90;;;;;;5062404;28;20109;-75
2023/06/06 09:46:50;;;;;;;13.85;5.28;;;17.40;99.90;;;;;;5057325;28;20048;-74
2023/06/06 09:49:15;;;;;;;10.23;5.18;;;17.80;99.90;;;;;;5057532;28;20029;-74
2023/06/06 09:51:45;;;;;;;12.55;5.18;;;17.80;99.90;;;;;;5058617;28;20119;-74
2023/06/06 09:54:11;;;;;;;13.35;5.43;;;17.90;99.90;;;;;;5061664;28;20037;-74
2023/06/06 09:56:41;;;;;;;11.48;5.22;;;17.90;99.90;;;;;;5034739;28;20040;-74
2023/06/06 09:59:08;;;;;;;13.77;5.38;;;17.90;99.90;;;;;;5060125;28;20094;-74
2023/06/06 10:01:37;;;;;;;15.32;5.35;;;17.90;99.90;;;;;;5055348;28;20048;-74
2023/06/06 10:04:06;;;;;;;14.27;5.07;;;17.90;99.90;;;;;;5061883;28;20048;-73
2023/06/06 10:06:37;;;;;;;11.15;4.70;;;18.00;99.90;;;;;;5055338;28;20783;-74
2023/06/06 10:09:06;;;;;;;9.63;4.50;;;18.10;99.90;;;;;;5054902;28;20600;-74
2023/06/06 10:11:37;;;;;;;13.10;5.10;;;18.20;99.90;;;;;;5063175;28;20041;-74
2023/06/06 10:14:05;;;;;;;12.60;5.45;;;18.20;99.90;;;;;;5059724;28;20175;-74
2023/06/06 10:16:35;;;;;;;13.32;5.10;;;18.10;99.90;;;;;;5051505;28;20489;-74
2023/06/06 10:19:01;;;;;;;13.73;5.40;;;18.10;99.90;;;;;;5054357;28;20051;-74
2023/06/06 10:21:30;;;;;;;14.85;5.53;;;18.10;99.90;;;;;;5057083;28;20051;-74
2023/06/06 10:23:56;;;;;;;11.55;5.20;;;18.30;99.90;;;;;;5057550;28;20068;-74
2023/06/06 10:26:41;;;;;;;12.63;5.55;;;18.20;99.90;;;;;;5055012;28;20128;-73
2023/06/06 10:29:13;;;;;;;13.00;5.70;;;18.30;99.90;;;;;;5052754;28;20149;-74
2023/06/06 10:31:59;;;;;;;12.48;5.20;;;18.40;99.90;;;;;;5055853;28;20048;-74
2023/06/06 10:34:33;;;;;;;11.50;4.93;;;18.40;99.90;;;;;;5059683;28;20043;-75
2023/06/06 10:37:14;;;;;;;10.65;4.97;;;18.30;99.90;;;;;;5057152;28;20053;-74
2023/06/06 10:39:44;;;;;;;10.45;4.63;;;18.30;99.90;;;;;;5054715;28;20041;-74
2023/06/06 10:42:10;;;;;;;13.98;5.18;;;18.40;99.90;;;;;;5055954;28;20047;-74
2023/06/06 10:44:53;;;;;;;11.40;4.72;;;18.40;99.90;;;;;;5056677;28;20045;-73
2023/06/06 10:47:23;;;;;;;10.25;4.35;;;18.50;99.90;;;;;;5058593;28;20275;-74
2023/06/06 10:50:21;;;;;;;12.35;5.00;;;18.50;99.90;;;;;;5059192;28;20041;-75
2023/06/06 10:52:59;;;;;;;14.32;5.10;;;18.50;99.90;;;;;;5018400;28;20532;-74
2023/06/06 10:55:25;;;;;;;14.02;4.97;;;18.40;99.90;;;;;;5062182;28;20041;-74
2023/06/06 10:58:13;;;;;;;12.27;4.63;;;18.30;99.90;;;;;;5057181;28;20044;-75
2023/06/06 11:00:50;;;;;;;13.75;4.70;;;18.20;99.90;;;;;;5057541;28;20079;-75
2023/06/06 11:03:30;;;;;;;12.05;4.28;;;18.10;99.90;;;;;;5039225;28;20040;-75
2023/06/06 11:06:01;;;;;;;13.20;4.85;;;18.20;99.90;;;;;;5065563;28;20044;-74
2023/06/06 11:08:39;;;;;;;11.52;4.57;;;18.20;99.90;;;;;;5064044;28;20086;-74
2023/06/06 11:11:25;;;;;;;12.77;4.70;;;18.40;99.90;;;;;;5064529;28;20041;-75
2023/06/06 11:14:05;;;;;;;10.95;5.03;;;18.40;99.90;;;;;;5062344;28;20142;-75
2023/06/06 11:16:40;;;;;;;10.35;4.80;;;18.40;99.90;;;;;;5061957;28;20555;-74
2023/06/06 11:19:19;;;;;;;10.32;4.57;;;18.40;99.90;;;;;;5063966;28;20082;-75
2023/06/06 11:21:46;;;;;;;10.18;4.18;;;18.30;99.90;;;;;;5063713;28;20059;-75
2023/06/06 11:24:13;;;;;;;12.15;4.97;;;18.30;99.90;;;;;;5061982;28;20514;-75
2023/06/06 11:26:41;;;;;;;14.57;5.10;;;18.40;99.90;;;;;;5057240;28;20501;-74
2023/06/06 11:29:08;;;;;;;11.25;4.75;;;18.40;99.90;;;;;;5062034;28;20130;-75
2023/06/06 11:31:35;;;;;;;11.10;4.53;;;18.50;99.90;;;;;;5038768;28;20052;-74
2023/06/06 11:34:06;;;;;;;11.52;4.35;;;18.60;99.90;;;;;;5054595;28;20072;-75
2023/06/06 11:36:37;;;;;;;12.27;4.90;;;18.70;99.90;;;;;;5063310;28;20095;-74
2023/06/06 11:39:05;;;;;;;13.80;5.50;;;18.70;99.90;;;;;;5064803;28;20044;-75
2023/06/06 11:41:45;;;;;;;12.55;5.03;;;18.80;99.90;;;;;;5064108;28;20554;-74
2023/06/06 11:44:12;;;;;;;12.55;4.80;;;18.70;99.90;;;;;;5063111;28;20039;-74
2023/06/06 11:46:49;;;;;;;11.95;5.13;;;18.70;99.90;;;;;;5055501;28;20070;-74
2023/06/06 11:49:16;;;;;;;14.23;5.18;;;18.70;99.90;;;;;;5055378;28;20045;-74
2023/06/06 11:52:03;;;;;;;10.55;4.65;;;18.60;99.90;;;;;;5063473;28;20384;-75
2023/06/06 11:54:29;;;;;;;11.75;5.18;;;18.60;99.90;;;;;;5064247;28;20225;-75
2023/06/06 11:57:02;;;;;;;10.65;4.78;;;18.60;99.90;;;;;;5055797;28;20047;-75
2023/06/06 11:59:28;;;;;;;11.23;4.72;;;18.60;99.90;;;;;;5053562;28;20045;-75
2023/06/06 12:01:54;;;;;;;11.30;4.72;;;18.60;99.90;;;;;;5056439;28;20659;-75
2023/06/06 12:04:21;;;;;;;12.70;4.53;;;18.60;99.90;;;;;;5058638;28;20035;-75
2023/06/06 12:06:51;;;;;;;13.32;4.95;;;18.60;99.90;;;;;;5061377;28;20068;-74
2023/06/06 12:09:19;;;;;;;14.90;4.80;;;18.70;99.90;;;;;;5042090;28;20116;-74
2023/06/06 12:11:54;;;;;;;11.30;4.85;;;18.70;99.90;;;;;;5058510;28;20041;-74
2023/06/06 12:14:24;;;;;;;14.10;4.95;;;18.80;99.90;;;;;;5060000;28;20076;-74
2023/06/06 12:16:50;;;;;;;11.55;5.15;;;18.80;99.90;;;;;;5062027;28;20209;-74
2023/06/06 12:19:17;;;;;;;12.43;5.28;;;18.80;99.90;;;;;;5060209;28;20040;-74
2023/06/06 12:21:52;;;;;;;11.93;5.00;;;18.80;99.90;;;;;;5059352;28;20083;-75
2023/06/06 12:24:32;;;;;;;10.55;4.35;;;18.80;99.90;;;;;;5059029;28;20043;-74
2023/06/06 12:27:00;;;;;;;15.07;5.18;;;18.90;99.90;;;;;;5055697;28;20056;-74
2023/06/06 12:29:30;;;;;;;13.63;5.43;;;19.00;99.90;;;;;;5061092;28;20135;-74
2023/06/06 12:32:14;;;;;;;12.38;5.10;;;19.10;99.90;;;;;;5058988;28;20053;-74
2023/06/06 12:34:44;;;;;;;13.20;5.00;;;19.20;99.90;;;;;;5058676;28;20051;-74
2023/06/06 12:37:10;;;;;;;11.90;5.10;;;18.90;99.90;;;;;;5065174;28;20040;-75
2023/06/06 12:39:42;;;;;;;12.00;4.45;;;18.90;99.90;;;;;;5061513;28;20074;-74
2023/06/06 12:42:19;;;;;;;15.63;4.90;;;18.90;99.90;;;;;;5061114;28;20178;-74
2023/06/06 12:44:46;;;;;;;13.30;4.93;;;19.10;99.90;;;;;;5057280;28;20356;-74